sensor_id;sensor_type;location;lat;lon;timestamp;P1;durP1;ratioP1;P2;durP2;ratioP2
41897;SDS011;27576;53.366;-1.498;2023-08-17T00:02:20;10.77;;;8.02;;
41897;SDS011;27576;53.366;-1.498;2023-08-17T00:04:46;13.43;;;9.20;;
41897;SDS011;27576;53.366;-1.498;2023-08-17T00:07:11;11.20;;;10.02;;
41897;SDS011;27576;53.366;-1.498;2023-08-17T00:09:36;11.75;;;8.98;;
41897;SDS011;27576;53.366;-1.498;2023-08-17T00:12:02;13.90;;;10.95;;
41897;SDS011;27576;53.366;-1.498;2023-08-17T00:14:28;13.85;;;10.93;;
41897;SDS011;27576;53.366;-1.498;2023-08-17T00:16:54;11.15;;;9.65;;
41897;SDS011;27576;53.366;-1.498;2023-08-17T00:19:19;17.45;;;11.20;;
41897;SDS011;27576;53.366;-1.498;2023-08-17T00:21:44;10.32;;;9.20;;
41897;SDS011;27576;53.366;-1.498;2023-08-17T00:24:10;13.60;;;10.52;;
41897;SDS011;27576;53.366;-1.498;2023-08-17T00:26:36;18.98;;;11.98;;
41897;SDS011;27576;53.366;-1.498;2023-08-17T00:29:02;18.65;;;13.65;;
41897;SDS011;27576;53.366;-1.498;2023-08-17T00:31:27;20.15;;;16.80;;
41897;SDS011;27576;53.366;-1.498;2023-08-17T00:33:53;22.40;;;15.55;;
41897;SDS011;27576;53.366;-1.498;2023-08-17T00:36:18;24.60;;;15.75;;
41897;SDS011;27576;53.366;-1.498;2023-08-17T00:38:43;21.48;;;16.90;;
41897;SDS011;27576;53.366;-1.498;2023-08-17T00:41:09;21.83;;;16.75;;
41897;SDS011;27576;53.366;-1.498;2023-08-17T00:43:34;30.75;;;20.80;;
41897;SDS011;27576;53.366;-1.498;2023-08-17T00:46:00;23.92;;;18.88;;
41897;SDS011;27576;53.366;-1.498;2023-08-17T00:48:26;27.95;;;19.55;;
41897;SDS011;27576;53.366;-1.498;2023-08-17T00:50:53;27.13;;;19.48;;
41897;SDS011;27576;53.366;-1.498;2023-08-17T00:53:20;26.40;;;19.73;;
41897;SDS011;27576;53.366;-1.498;2023-08-17T00:55:45;22.38;;;17.88;;
41897;SDS011;27576;53.366;-1.498;2023-08-17T00:58:11;28.33;;;19.15;;
41897;SDS011;27576;53.366;-1.498;2023-08-17T01:00:37;28.15;;;20.33;;
41897;SDS011;27576;53.366;-1.498;2023-08-17T01:03:02;30.50;;;20.20;;
41897;SDS011;27576;53.366;-1.498;2023-08-17T01:05:28;29.38;;;21.63;;
41897;SDS011;27576;53.366;-1.498;2023-08-17T01:07:56;31.10;;;21.48;;
41897;SDS011;27576;53.366;-1.498;2023-08-17T01:10:21;38.50;;;26.08;;
41897;SDS011;27576;53.366;-1.498;2023-08-17T01:12:48;38.83;;;23.50;;
41897;SDS011;27576;53.366;-1.498;2023-08-17T01:18:03;42.00;;;24.55;;
41897;SDS011;27576;53.366;-1.498;2023-08-17T01:20:34;44.58;;;27.30;;
41897;SDS011;27576;53.366;-1.498;2023-08-17T01:23:04;37.92;;;27.20;;
41897;SDS011;27576;53.366;-1.498;2023-08-17T01:25:30;40.05;;;26.27;;
41897;SDS011;27576;53.366;-1.498;2023-08-17T01:27:55;43.22;;;28.30;;
41897;SDS011;27576;53.366;-1.498;2023-08-17T01:30:23;46.83;;;29.60;;
41897;SDS011;27576;53.366;-1.498;2023-08-17T01:35:33;46.20;;;30.55;;
41897;SDS011;27576;53.366;-1.498;2023-08-17T01:38:02;41.33;;;26.58;;
41897;SDS011;27576;53.366;-1.498;2023-08-17T01:40:33;43.33;;;28.25;;
41897;SDS011;27576;53.366;-1.498;2023-08-17T01:42:59;43.85;;;28.10;;
41897;SDS011;27576;53.366;-1.498;2023-08-17T01:45:25;52.75;;;30.55;;
41897;SDS011;27576;53.366;-1.498;2023-08-17T01:47:50;54.55;;;32.10;;
41897;SDS011;27576;53.366;-1.498;2023-08-17T01:50:16;54.38;;;33.50;;
41897;SDS011;27576;53.366;-1.498;2023-08-17T01:52:41;49.65;;;30.48;;
41897;SDS011;27576;53.366;-1.498;2023-08-17T01:55:07;57.17;;;33.95;;
41897;SDS011;27576;53.366;-1.498;2023-08-17T01:57:33;54.25;;;31.92;;
41897;SDS011;27576;53.366;-1.498;2023-08-17T02:00:00;53.42;;;32.05;;
41897;SDS011;27576;53.366;-1.498;2023-08-17T02:02:25;47.90;;;29.45;;
41897;SDS011;27576;53.366;-1.498;2023-08-17T02:04:50;45.33;;;29.90;;
41897;SDS011;27576;53.366;-1.498;2023-08-17T02:07:16;45.45;;;27.35;;
41897;SDS011;27576;53.366;-1.498;2023-08-17T02:09:41;53.28;;;32.65;;
41897;SDS011;27576;53.366;-1.498;2023-08-17T02:12:07;46.45;;;30.27;;
41897;SDS011;27576;53.366;-1.498;2023-08-17T02:14:33;55.08;;;32.65;;
41897;SDS011;27576;53.366;-1.498;2023-08-17T02:16:58;45.10;;;28.30;;
41897;SDS011;27576;53.366;-1.498;2023-08-17T02:19:24;60.05;;;35.67;;
41897;SDS011;27576;53.366;-1.498;2023-08-17T02:21:49;51.95;;;31.50;;
41897;SDS011;27576;53.366;-1.498;2023-08-17T02:24:14;46.90;;;30.65;;
41897;SDS011;27576;53.366;-1.498;2023-08-17T02:26:40;50.13;;;32.70;;
41897;SDS011;27576;53.366;-1.498;2023-08-17T02:29:05;53.83;;;33.38;;
41897;SDS011;27576;53.366;-1.498;2023-08-17T02:31:30;54.72;;;31.85;;
41897;SDS011;27576;53.366;-1.498;2023-08-17T02:33:56;60.42;;;35.55;;
41897;SDS011;27576;53.366;-1.498;2023-08-17T02:36:25;62.10;;;34.85;;
41897;SDS011;27576;53.366;-1.498;2023-08-17T02:38:51;62.42;;;34.28;;
41897;SDS011;27576;53.366;-1.498;2023-08-17T02:41:17;59.78;;;35.00;;
41897;SDS011;27576;53.366;-1.498;2023-08-17T02:43:42;57.95;;;33.65;;
41897;SDS011;27576;53.366;-1.498;2023-08-17T02:46:07;51.55;;;32.10;;
41897;SDS011;27576;53.366;-1.498;2023-08-17T02:48:33;64.18;;;34.58;;
41897;SDS011;27576;53.366;-1.498;2023-08-17T02:50:59;58.92;;;34.15;;
41897;SDS011;27576;53.366;-1.498;2023-08-17T02:53:24;65.90;;;36.20;;
41897;SDS011;27576;53.366;-1.498;2023-08-17T02:55:49;56.15;;;30.55;;
41897;SDS011;27576;53.366;-1.498;2023-08-17T02:58:15;64.57;;;35.17;;
41897;SDS011;27576;53.366;-1.498;2023-08-17T03:00:40;53.90;;;31.27;;
41897;SDS011;27576;53.366;-1.498;2023-08-17T03:03:05;58.85;;;31.83;;
41897;SDS011;27576;53.366;-1.498;2023-08-17T03:05:31;58.40;;;33.40;;
41897;SDS011;27576;53.366;-1.498;2023-08-17T03:07:56;54.63;;;32.25;;
41897;SDS011;27576;53.366;-1.498;2023-08-17T03:10:21;53.95;;;32.63;;
41897;SDS011;27576;53.366;-1.498;2023-08-17T03:12:47;63.03;;;33.22;;
41897;SDS011;27576;53.366;-1.498;2023-08-17T03:15:13;49.90;;;30.85;;
41897;SDS011;27576;53.366;-1.498;2023-08-17T03:17:38;54.83;;;32.33;;
41897;SDS011;27576;53.366;-1.498;2023-08-17T03:20:04;55.22;;;33.28;;
41897;SDS011;27576;53.366;-1.498;2023-08-17T03:22:31;60.00;;;33.78;;
41897;SDS011;27576;53.366;-1.498;2023-08-17T03:24:57;65.05;;;36.15;;
41897;SDS011;27576;53.366;-1.498;2023-08-17T03:27:22;65.10;;;35.08;;
41897;SDS011;27576;53.366;-1.498;2023-08-17T03:29:49;49.35;;;30.63;;
41897;SDS011;27576;53.366;-1.498;2023-08-17T03:32:15;63.63;;;36.83;;
41897;SDS011;27576;53.366;-1.498;2023-08-17T03:34:40;51.58;;;33.03;;
41897;SDS011;27576;53.366;-1.498;2023-08-17T03:37:06;54.80;;;32.33;;
41897;SDS011;27576;53.366;-1.498;2023-08-17T03:39:31;53.38;;;31.73;;
41897;SDS011;27576;53.366;-1.498;2023-08-17T03:41:56;63.65;;;35.20;;
41897;SDS011;27576;53.366;-1.498;2023-08-17T03:44:22;69.35;;;38.35;;
41897;SDS011;27576;53.366;-1.498;2023-08-17T03:46:47;54.42;;;34.55;;
41897;SDS011;27576;53.366;-1.498;2023-08-17T03:49:12;64.22;;;37.38;;
41897;SDS011;27576;53.366;-1.498;2023-08-17T03:51:39;57.95;;;34.38;;
41897;SDS011;27576;53.366;-1.498;2023-08-17T03:54:04;63.13;;;36.13;;
41897;SDS011;27576;53.366;-1.498;2023-08-17T03:56:30;54.58;;;33.90;;
41897;SDS011;27576;53.366;-1.498;2023-08-17T03:58:55;59.70;;;36.75;;
41897;SDS011;27576;53.366;-1.498;2023-08-17T04:01:20;60.15;;;37.10;;
41897;SDS011;27576;53.366;-1.498;2023-08-17T04:03:46;57.90;;;34.90;;
41897;SDS011;27576;53.366;-1.498;2023-08-17T04:06:11;51.00;;;32.25;;
41897;SDS011;27576;53.366;-1.498;2023-08-17T04:08:37;61.63;;;38.42;;
41897;SDS011;27576;53.366;-1.498;2023-08-17T04:11:03;52.25;;;34.55;;
41897;SDS011;27576;53.366;-1.498;2023-08-17T04:13:28;54.15;;;32.90;;
41897;SDS011;27576;53.366;-1.498;2023-08-17T04:15:54;51.92;;;34.13;;
41897;SDS011;27576;53.366;-1.498;2023-08-17T04:18:19;53.53;;;33.85;;
41897;SDS011;27576;53.366;-1.498;2023-08-17T04:20:44;52.55;;;35.25;;
41897;SDS011;27576;53.366;-1.498;2023-08-17T04:23:10;63.55;;;37.65;;
41897;SDS011;27576;53.366;-1.498;2023-08-17T04:25:35;43.72;;;30.02;;
41897;SDS011;27576;53.366;-1.498;2023-08-17T04:28:01;50.55;;;33.25;;
41897;SDS011;27576;53.366;-1.498;2023-08-17T04:30:26;51.78;;;31.45;;
41897;SDS011;27576;53.366;-1.498;2023-08-17T04:32:51;38.42;;;27.35;;
41897;SDS011;27576;53.366;-1.498;2023-08-17T04:35:20;53.55;;;33.20;;
41897;SDS011;27576;53.366;-1.498;2023-08-17T04:37:46;44.53;;;28.40;;
41897;SDS011;27576;53.366;-1.498;2023-08-17T04:40:12;34.13;;;25.75;;
41897;SDS011;27576;53.366;-1.498;2023-08-17T04:42:37;43.95;;;29.42;;
41897;SDS011;27576;53.366;-1.498;2023-08-17T04:45:03;46.20;;;29.80;;
41897;SDS011;27576;53.366;-1.498;2023-08-17T04:47:28;49.30;;;33.28;;
41897;SDS011;27576;53.366;-1.498;2023-08-17T04:49:54;53.80;;;32.30;;
41897;SDS011;27576;53.366;-1.498;2023-08-17T04:52:19;47.72;;;32.50;;
41897;SDS011;27576;53.366;-1.498;2023-08-17T04:54:44;46.92;;;30.67;;
41897;SDS011;27576;53.366;-1.498;2023-08-17T04:57:10;40.08;;;28.13;;
41897;SDS011;27576;53.366;-1.498;2023-08-17T04:59:35;56.30;;;34.83;;
41897;SDS011;27576;53.366;-1.498;2023-08-17T05:02:01;47.25;;;31.00;;
41897;SDS011;27576;53.366;-1.498;2023-08-17T05:04:26;51.05;;;30.88;;
41897;SDS011;27576;53.366;-1.498;2023-08-17T05:06:52;40.03;;;28.45;;
41897;SDS011;27576;53.366;-1.498;2023-08-17T05:09:17;43.92;;;28.23;;
41897;SDS011;27576;53.366;-1.498;2023-08-17T05:11:43;40.28;;;26.88;;
41897;SDS011;27576;53.366;-1.498;2023-08-17T05:14:08;41.88;;;26.10;;
41897;SDS011;27576;53.366;-1.498;2023-08-17T05:16:34;36.92;;;25.13;;
41897;SDS011;27576;53.366;-1.498;2023-08-17T05:18:59;48.88;;;29.85;;
41897;SDS011;27576;53.366;-1.498;2023-08-17T05:21:25;43.95;;;30.80;;
41897;SDS011;27576;53.366;-1.498;2023-08-17T05:23:50;36.83;;;25.80;;
41897;SDS011;27576;53.366;-1.498;2023-08-17T05:26:16;41.03;;;26.73;;
41897;SDS011;27576;53.366;-1.498;2023-08-17T05:28:42;39.47;;;27.05;;
41897;SDS011;27576;53.366;-1.498;2023-08-17T05:31:08;45.75;;;26.80;;
41897;SDS011;27576;53.366;-1.498;2023-08-17T05:33:34;33.70;;;22.25;;
41897;SDS011;27576;53.366;-1.498;2023-08-17T05:35:59;34.60;;;21.38;;
41897;SDS011;27576;53.366;-1.498;2023-08-17T05:38:25;33.35;;;20.58;;
41897;SDS011;27576;53.366;-1.498;2023-08-17T05:40:57;33.17;;;20.80;;
41897;SDS011;27576;53.366;-1.498;2023-08-17T05:43:23;29.70;;;20.45;;
41897;SDS011;27576;53.366;-1.498;2023-08-17T05:45:49;30.52;;;21.40;;
41897;SDS011;27576;53.366;-1.498;2023-08-17T05:48:15;24.35;;;18.10;;
41897;SDS011;27576;53.366;-1.498;2023-08-17T05:50:43;26.38;;;18.23;;
41897;SDS011;27576;53.366;-1.498;2023-08-17T05:53:08;26.02;;;17.63;;
41897;SDS011;27576;53.366;-1.498;2023-08-17T05:55:35;29.45;;;18.92;;
41897;SDS011;27576;53.366;-1.498;2023-08-17T05:58:01;27.30;;;18.58;;
41897;SDS011;27576;53.366;-1.498;2023-08-17T06:00:27;26.77;;;18.38;;
41897;SDS011;27576;53.366;-1.498;2023-08-17T06:02:52;27.70;;;17.85;;
41897;SDS011;27576;53.366;-1.498;2023-08-17T06:05:22;25.73;;;17.65;;
41897;SDS011;27576;53.366;-1.498;2023-08-17T06:07:50;24.23;;;15.60;;
41897;SDS011;27576;53.366;-1.498;2023-08-17T06:10:15;21.95;;;15.65;;
41897;SDS011;27576;53.366;-1.498;2023-08-17T06:12:41;19.75;;;13.98;;
41897;SDS011;27576;53.366;-1.498;2023-08-17T06:15:06;21.25;;;16.42;;
41897;SDS011;27576;53.366;-1.498;2023-08-17T06:17:32;23.95;;;15.75;;
41897;SDS011;27576;53.366;-1.498;2023-08-17T06:19:57;18.48;;;14.13;;
41897;SDS011;27576;53.366;-1.498;2023-08-17T06:22:22;21.88;;;16.52;;
41897;SDS011;27576;53.366;-1.498;2023-08-17T06:24:48;23.63;;;17.10;;
41897;SDS011;27576;53.366;-1.498;2023-08-17T06:27:14;17.10;;;12.88;;
41897;SDS011;27576;53.366;-1.498;2023-08-17T06:29:39;20.58;;;14.57;;
41897;SDS011;27576;53.366;-1.498;2023-08-17T06:32:05;19.60;;;12.73;;
41897;SDS011;27576;53.366;-1.498;2023-08-17T06:34:30;14.57;;;11.60;;
41897;SDS011;27576;53.366;-1.498;2023-08-17T06:36:56;15.52;;;11.05;;
41897;SDS011;27576;53.366;-1.498;2023-08-17T06:39:23;18.35;;;11.77;;
41897;SDS011;27576;53.366;-1.498;2023-08-17T06:41:48;16.98;;;12.10;;
41897;SDS011;27576;53.366;-1.498;2023-08-17T06:44:14;18.48;;;11.45;;
41897;SDS011;27576;53.366;-1.498;2023-08-17T06:46:39;12.38;;;10.80;;
41897;SDS011;27576;53.366;-1.498;2023-08-17T06:49:04;19.98;;;12.98;;
41897;SDS011;27576;53.366;-1.498;2023-08-17T06:51:30;14.25;;;9.73;;
41897;SDS011;27576;53.366;-1.498;2023-08-17T06:53:55;18.30;;;13.07;;
41897;SDS011;27576;53.366;-1.498;2023-08-17T06:56:21;19.92;;;11.40;;
41897;SDS011;27576;53.366;-1.498;2023-08-17T06:58:47;18.92;;;10.02;;
41897;SDS011;27576;53.366;-1.498;2023-08-17T07:01:13;15.30;;;8.45;;
41897;SDS011;27576;53.366;-1.498;2023-08-17T07:03:39;11.30;;;7.90;;
41897;SDS011;27576;53.366;-1.498;2023-08-17T07:06:05;13.95;;;8.60;;
41897;SDS011;27576;53.366;-1.498;2023-08-17T07:08:30;16.33;;;8.25;;
41897;SDS011;27576;53.366;-1.498;2023-08-17T07:10:56;12.27;;;7.15;;
41897;SDS011;27576;53.366;-1.498;2023-08-17T07:13:22;16.17;;;7.43;;
41897;SDS011;27576;53.366;-1.498;2023-08-17T07:15:47;9.48;;;5.55;;
41897;SDS011;27576;53.366;-1.498;2023-08-17T07:18:12;14.00;;;7.00;;
41897;SDS011;27576;53.366;-1.498;2023-08-17T07:20:38;11.75;;;5.93;;
41897;SDS011;27576;53.366;-1.498;2023-08-17T07:23:03;10.57;;;6.05;;
41897;SDS011;27576;53.366;-1.498;2023-08-17T07:25:28;8.18;;;5.63;;
41897;SDS011;27576;53.366;-1.498;2023-08-17T07:27:54;10.63;;;6.20;;
41897;SDS011;27576;53.366;-1.498;2023-08-17T07:30:19;8.95;;;5.57;;
41897;SDS011;27576;53.366;-1.498;2023-08-17T07:32:45;12.60;;;5.65;;
41897;SDS011;27576;53.366;-1.498;2023-08-17T07:35:10;11.82;;;6.38;;
41897;SDS011;27576;53.366;-1.498;2023-08-17T07:37:35;11.10;;;5.45;;
41897;SDS011;27576;53.366;-1.498;2023-08-17T07:40:01;11.25;;;6.00;;
41897;SDS011;27576;53.366;-1.498;2023-08-17T07:42:30;8.00;;;4.50;;
41897;SDS011;27576;53.366;-1.498;2023-08-17T07:44:55;9.70;;;4.70;;
41897;SDS011;27576;53.366;-1.498;2023-08-17T07:47:20;11.75;;;4.93;;
41897;SDS011;27576;53.366;-1.498;2023-08-17T07:49:46;16.90;;;5.53;;
41897;SDS011;27576;53.366;-1.498;2023-08-17T07:52:11;10.50;;;4.75;;
41897;SDS011;27576;53.366;-1.498;2023-08-17T07:54:37;12.43;;;4.95;;
41897;SDS011;27576;53.366;-1.498;2023-08-17T07:57:02;11.55;;;4.55;;
41897;SDS011;27576;53.366;-1.498;2023-08-17T07:59:28;11.18;;;5.20;;
41897;SDS011;27576;53.366;-1.498;2023-08-17T08:01:54;9.82;;;4.28;;
41897;SDS011;27576;53.366;-1.498;2023-08-17T08:04:19;7.85;;;4.80;;
41897;SDS011;27576;53.366;-1.498;2023-08-17T08:06:45;8.80;;;4.13;;
41897;SDS011;27576;53.366;-1.498;2023-08-17T08:09:11;14.73;;;4.00;;
41897;SDS011;27576;53.366;-1.498;2023-08-17T08:11:37;9.80;;;3.80;;
41897;SDS011;27576;53.366;-1.498;2023-08-17T08:14:02;8.40;;;3.15;;
41897;SDS011;27576;53.366;-1.498;2023-08-17T08:16:28;5.90;;;3.83;;
41897;SDS011;27576;53.366;-1.498;2023-08-17T08:18:56;5.90;;;3.30;;
41897;SDS011;27576;53.366;-1.498;2023-08-17T08:21:22;5.97;;;3.42;;
41897;SDS011;27576;53.366;-1.498;2023-08-17T08:23:47;7.18;;;3.38;;
41897;SDS011;27576;53.366;-1.498;2023-08-17T08:26:12;10.15;;;4.07;;
41897;SDS011;27576;53.366;-1.498;2023-08-17T08:28:38;5.57;;;2.92;;
41897;SDS011;27576;53.366;-1.498;2023-08-17T08:31:04;6.28;;;3.40;;
41897;SDS011;27576;53.366;-1.498;2023-08-17T08:33:29;6.90;;;2.80;;
41897;SDS011;27576;53.366;-1.498;2023-08-17T08:35:55;10.18;;;4.22;;
41897;SDS011;27576;53.366;-1.498;2023-08-17T08:38:20;7.00;;;3.92;;
41897;SDS011;27576;53.366;-1.498;2023-08-17T08:40:46;8.25;;;3.17;;
41897;SDS011;27576;53.366;-1.498;2023-08-17T08:43:12;8.15;;;3.60;;
41897;SDS011;27576;53.366;-1.498;2023-08-17T08:45:38;6.25;;;3.25;;
41897;SDS011;27576;53.366;-1.498;2023-08-17T08:48:08;8.52;;;3.60;;
41897;SDS011;27576;53.366;-1.498;2023-08-17T08:50:33;7.32;;;3.20;;
41897;SDS011;27576;53.366;-1.498;2023-08-17T08:53:01;10.20;;;3.70;;
41897;SDS011;27576;53.366;-1.498;2023-08-17T08:55:32;7.50;;;3.05;;
41897;SDS011;27576;53.366;-1.498;2023-08-17T08:58:02;8.30;;;3.53;;
41897;SDS011;27576;53.366;-1.498;2023-08-17T09:00:29;13.52;;;3.60;;
41897;SDS011;27576;53.366;-1.498;2023-08-17T09:02:55;6.43;;;3.20;;
41897;SDS011;27576;53.366;-1.498;2023-08-17T09:05:21;7.63;;;2.97;;
41897;SDS011;27576;53.366;-1.498;2023-08-17T09:07:48;10.10;;;3.35;;
41897;SDS011;27576;53.366;-1.498;2023-08-17T09:10:14;5.65;;;3.55;;
41897;SDS011;27576;53.366;-1.498;2023-08-17T09:12:41;7.82;;;3.72;;
41897;SDS011;27576;53.366;-1.498;2023-08-17T09:15:09;6.30;;;3.45;;
41897;SDS011;27576;53.366;-1.498;2023-08-17T09:17:34;9.18;;;3.08;;
41897;SDS011;27576;53.366;-1.498;2023-08-17T09:20:00;7.00;;;3.22;;
41897;SDS011;27576;53.366;-1.498;2023-08-17T09:22:35;8.65;;;3.60;;
41897;SDS011;27576;53.366;-1.498;2023-08-17T09:25:04;7.57;;;3.53;;
41897;SDS011;27576;53.366;-1.498;2023-08-17T09:27:31;9.13;;;3.50;;
41897;SDS011;27576;53.366;-1.498;2023-08-17T09:30:04;4.88;;;3.17;;
41897;SDS011;27576;53.366;-1.498;2023-08-17T09:32:31;5.40;;;2.90;;
41897;SDS011;27576;53.366;-1.498;2023-08-17T09:35:01;11.15;;;3.83;;
41897;SDS011;27576;53.366;-1.498;2023-08-17T09:37:31;6.07;;;3.03;;
41897;SDS011;27576;53.366;-1.498;2023-08-17T09:39:57;6.95;;;2.55;;
41897;SDS011;27576;53.366;-1.498;2023-08-17T09:42:22;7.13;;;2.65;;
41897;SDS011;27576;53.366;-1.498;2023-08-17T09:44:50;3.17;;;2.35;;
41897;SDS011;27576;53.366;-1.498;2023-08-17T09:47:16;5.72;;;2.17;;
41897;SDS011;27576;53.366;-1.498;2023-08-17T09:49:47;5.72;;;2.70;;
41897;SDS011;27576;53.366;-1.498;2023-08-17T09:52:13;4.50;;;2.33;;
41897;SDS011;27576;53.366;-1.498;2023-08-17T09:54:39;5.00;;;2.05;;
41897;SDS011;27576;53.366;-1.498;2023-08-17T09:57:05;4.13;;;1.70;;
41897;SDS011;27576;53.366;-1.498;2023-08-17T09:59:31;7.78;;;2.40;;
41897;SDS011;27576;53.366;-1.498;2023-08-17T10:01:56;7.30;;;2.47;;
41897;SDS011;27576;53.366;-1.498;2023-08-17T10:04:24;6.57;;;2.67;;
41897;SDS011;27576;53.366;-1.498;2023-08-17T10:07:03;3.50;;;1.88;;
41897;SDS011;27576;53.366;-1.498;2023-08-17T10:09:31;4.65;;;2.30;;
41897;SDS011;27576;53.366;-1.498;2023-08-17T10:12:03;7.68;;;2.10;;
41897;SDS011;27576;53.366;-1.498;2023-08-17T10:14:34;5.53;;;2.15;;
41897;SDS011;27576;53.366;-1.498;2023-08-17T10:17:09;3.40;;;2.05;;
41897;SDS011;27576;53.366;-1.498;2023-08-17T10:19:46;6.45;;;1.90;;
41897;SDS011;27576;53.366;-1.498;2023-08-17T10:22:51;5.50;;;2.30;;
41897;SDS011;27576;53.366;-1.498;2023-08-17T10:25:13;4.38;;;2.20;;
41897;SDS011;27576;53.366;-1.498;2023-08-17T10:27:40;6.53;;;2.13;;
41897;SDS011;27576;53.366;-1.498;2023-08-17T10:30:07;3.88;;;2.25;;
41897;SDS011;27576;53.366;-1.498;2023-08-17T10:32:36;3.92;;;2.15;;
41897;SDS011;27576;53.366;-1.498;2023-08-17T10:35:03;7.93;;;2.30;;
41897;SDS011;27576;53.366;-1.498;2023-08-17T10:37:29;4.57;;;1.85;;
41897;SDS011;27576;53.366;-1.498;2023-08-17T10:39:55;4.32;;;2.13;;
41897;SDS011;27576;53.366;-1.498;2023-08-17T10:42:31;5.72;;;2.10;;
41897;SDS011;27576;53.366;-1.498;2023-08-17T10:44:58;6.80;;;2.10;;
41897;SDS011;27576;53.366;-1.498;2023-08-17T10:47:30;3.42;;;1.92;;
41897;SDS011;27576;53.366;-1.498;2023-08-17T10:50:19;4.43;;;2.22;;
41897;SDS011;27576;53.366;-1.498;2023-08-17T10:52:47;3.60;;;2.00;;
41897;SDS011;27576;53.366;-1.498;2023-08-17T10:55:13;7.78;;;2.40;;
41897;SDS011;27576;53.366;-1.498;2023-08-17T10:57:42;6.65;;;2.20;;
41897;SDS011;27576;53.366;-1.498;2023-08-17T11:05:33;6.75;;;1.80;;
41897;SDS011;27576;53.366;-1.498;2023-08-17T11:08:02;3.45;;;1.90;;
41897;SDS011;27576;53.366;-1.498;2023-08-17T11:10:29;6.65;;;2.42;;
41897;SDS011;27576;53.366;-1.498;2023-08-17T11:12:56;6.00;;;2.17;;
41897;SDS011;27576;53.366;-1.498;2023-08-17T11:15:25;5.22;;;2.50;;
41897;SDS011;27576;53.366;-1.498;2023-08-17T11:18:02;3.03;;;1.77;;
41897;SDS011;27576;53.366;-1.498;2023-08-17T11:20:28;7.05;;;2.33;;
41897;SDS011;27576;53.366;-1.498;2023-08-17T11:22:54;4.50;;;2.17;;
41897;SDS011;27576;53.366;-1.498;2023-08-17T11:25:19;5.03;;;1.80;;
41897;SDS011;27576;53.366;-1.498;2023-08-17T11:27:45;3.45;;;1.80;;
41897;SDS011;27576;53.366;-1.498;2023-08-17T11:30:11;8.57;;;1.80;;
41897;SDS011;27576;53.366;-1.498;2023-08-17T11:32:37;5.70;;;2.00;;
41897;SDS011;27576;53.366;-1.498;2023-08-17T11:35:03;6.38;;;1.45;;
41897;SDS011;27576;53.366;-1.498;2023-08-17T11:37:28;7.40;;;2.10;;
41897;SDS011;27576;53.366;-1.498;2023-08-17T11:39:54;4.78;;;1.70;;
41897;SDS011;27576;53.366;-1.498;2023-08-17T11:42:19;3.33;;;1.45;;
41897;SDS011;27576;53.366;-1.498;2023-08-17T11:44:45;5.85;;;1.90;;
41897;SDS011;27576;53.366;-1.498;2023-08-17T11:47:10;3.35;;;1.80;;
41897;SDS011;27576;53.366;-1.498;2023-08-17T11:49:37;6.38;;;1.77;;
41897;SDS011;27576;53.366;-1.498;2023-08-17T11:52:02;3.65;;;1.70;;
41897;SDS011;27576;53.366;-1.498;2023-08-17T11:54:27;2.90;;;1.50;;
41897;SDS011;27576;53.366;-1.498;2023-08-17T11:56:53;3.20;;;1.52;;
41897;SDS011;27576;53.366;-1.498;2023-08-17T11:59:18;5.32;;;1.70;;
41897;SDS011;27576;53.366;-1.498;2023-08-17T12:01:44;2.60;;;1.67;;
41897;SDS011;27576;53.366;-1.498;2023-08-17T12:04:10;3.08;;;1.65;;
41897;SDS011;27576;53.366;-1.498;2023-08-17T12:06:36;4.20;;;1.50;;
41897;SDS011;27576;53.366;-1.498;2023-08-17T12:09:07;3.85;;;1.45;;
41897;SDS011;27576;53.366;-1.498;2023-08-17T12:11:33;1.98;;;1.13;;
41897;SDS011;27576;53.366;-1.498;2023-08-17T12:13:58;1.73;;;1.20;;
41897;SDS011;27576;53.366;-1.498;2023-08-17T12:16:24;2.33;;;1.25;;
41897;SDS011;27576;53.366;-1.498;2023-08-17T12:18:50;4.80;;;1.50;;
41897;SDS011;27576;53.366;-1.498;2023-08-17T12:21:16;4.00;;;1.30;;
41897;SDS011;27576;53.366;-1.498;2023-08-17T12:23:44;8.70;;;1.55;;
41897;SDS011;27576;53.366;-1.498;2023-08-17T12:26:09;4.93;;;1.58;;
41897;SDS011;27576;53.366;-1.498;2023-08-17T12:28:35;5.25;;;1.73;;
41897;SDS011;27576;53.366;-1.498;2023-08-17T12:31:01;3.15;;;1.50;;
41897;SDS011;27576;53.366;-1.498;2023-08-17T12:33:27;5.38;;;1.77;;
41897;SDS011;27576;53.366;-1.498;2023-08-17T12:35:52;5.07;;;1.40;;
41897;SDS011;27576;53.366;-1.498;2023-08-17T12:38:18;4.38;;;1.83;;
41897;SDS011;27576;53.366;-1.498;2023-08-17T12:40:43;2.58;;;1.10;;
41897;SDS011;27576;53.366;-1.498;2023-08-17T12:43:09;3.22;;;1.40;;
41897;SDS011;27576;53.366;-1.498;2023-08-17T12:45:34;1.30;;;1.00;;
41897;SDS011;27576;53.366;-1.498;2023-08-17T12:48:00;4.18;;;1.58;;
41897;SDS011;27576;53.366;-1.498;2023-08-17T12:50:25;4.57;;;1.90;;
41897;SDS011;27576;53.366;-1.498;2023-08-17T12:52:50;2.20;;;1.45;;
41897;SDS011;27576;53.366;-1.498;2023-08-17T12:55:16;3.90;;;1.38;;
41897;SDS011;27576;53.366;-1.498;2023-08-17T12:57:41;5.20;;;1.40;;
41897;SDS011;27576;53.366;-1.498;2023-08-17T13:00:07;4.25;;;1.92;;
41897;SDS011;27576;53.366;-1.498;2023-08-17T13:02:33;5.80;;;1.58;;
41897;SDS011;27576;53.366;-1.498;2023-08-17T13:04:59;3.28;;;1.38;;
41897;SDS011;27576;53.366;-1.498;2023-08-17T13:07:24;2.42;;;1.38;;
41897;SDS011;27576;53.366;-1.498;2023-08-17T13:09:50;3.25;;;1.00;;
41897;SDS011;27576;53.366;-1.498;2023-08-17T13:12:15;4.13;;;1.00;;
41897;SDS011;27576;53.366;-1.498;2023-08-17T13:14:40;2.83;;;1.00;;
41897;SDS011;27576;53.366;-1.498;2023-08-17T13:17:06;3.08;;;0.85;;
41897;SDS011;27576;53.366;-1.498;2023-08-17T13:19:31;5.57;;;1.00;;
41897;SDS011;27576;53.366;-1.498;2023-08-17T13:21:57;4.35;;;1.40;;
41897;SDS011;27576;53.366;-1.498;2023-08-17T13:24:22;3.97;;;1.30;;
41897;SDS011;27576;53.366;-1.498;2023-08-17T13:26:47;2.40;;;1.05;;
41897;SDS011;27576;53.366;-1.498;2023-08-17T13:29:17;4.60;;;1.48;;
41897;SDS011;27576;53.366;-1.498;2023-08-17T13:31:43;3.20;;;1.10;;
41897;SDS011;27576;53.366;-1.498;2023-08-17T13:34:08;4.30;;;1.25;;
41897;SDS011;27576;53.366;-1.498;2023-08-17T13:36:36;2.10;;;1.25;;
41897;SDS011;27576;53.366;-1.498;2023-08-17T13:39:02;2.95;;;0.90;;
41897;SDS011;27576;53.366;-1.498;2023-08-17T13:41:27;2.38;;;1.13;;
41897;SDS011;27576;53.366;-1.498;2023-08-17T13:43:52;2.17;;;1.25;;
41897;SDS011;27576;53.366;-1.498;2023-08-17T13:46:18;4.60;;;1.17;;
41897;SDS011;27576;53.366;-1.498;2023-08-17T13:48:43;3.03;;;1.10;;
41897;SDS011;27576;53.366;-1.498;2023-08-17T13:51:08;1.38;;;0.98;;
41897;SDS011;27576;53.366;-1.498;2023-08-17T13:53:34;3.88;;;1.20;;
41897;SDS011;27576;53.366;-1.498;2023-08-17T13:55:59;3.45;;;1.13;;
41897;SDS011;27576;53.366;-1.498;2023-08-17T13:58:25;6.25;;;1.40;;
41897;SDS011;27576;53.366;-1.498;2023-08-17T14:00:50;5.03;;;1.27;;
41897;SDS011;27576;53.366;-1.498;2023-08-17T14:03:15;3.03;;;1.30;;
41897;SDS011;27576;53.366;-1.498;2023-08-17T14:05:41;2.50;;;0.77;;
41897;SDS011;27576;53.366;-1.498;2023-08-17T14:08:06;3.30;;;1.10;;
41897;SDS011;27576;53.366;-1.498;2023-08-17T14:10:32;2.35;;;0.95;;
41897;SDS011;27576;53.366;-1.498;2023-08-17T14:13:01;3.22;;;1.23;;
41897;SDS011;27576;53.366;-1.498;2023-08-17T14:15:26;5.57;;;1.40;;
41897;SDS011;27576;53.366;-1.498;2023-08-17T14:17:51;1.45;;;0.85;;
41897;SDS011;27576;53.366;-1.498;2023-08-17T14:20:17;5.43;;;1.25;;
41897;SDS011;27576;53.366;-1.498;2023-08-17T14:22:42;4.20;;;1.13;;
41897;SDS011;27576;53.366;-1.498;2023-08-17T14:25:07;1.85;;;0.80;;
41897;SDS011;27576;53.366;-1.498;2023-08-17T14:27:33;3.00;;;0.98;;